Time;durP1;ratioP1;P1;durP2;ratioP2;P2;SDS_P1;SDS_P2;PMS_P1;PMS_P2;Temp;Humidity;BMP_temperature;BMP_pressure;BME280_temperature;BME280_humidity;BME280_pressure;Samples;Min_cycle;Max_cycle;Signal;HPM_P1;HPM_P2
2023/07/19 00:01:42;;;;;;;7.57;4.00;;;;;;;-145.69;63.34;51913.69;5093669;28;20656;-86
2023/07/19 00:04:09;;;;;;;9.60;4.63;;;;;;;-145.69;63.51;51913.69;5077458;28;20569;-86
2023/07/19 00:06:39;;;;;;;9.05;4.30;;;;;;;-145.69;63.91;51953.28;5089202;28;20200;-86
2023/07/19 00:09:05;;;;;;;9.15;3.47;;;;;;;-145.69;63.90;51895.84;5093870;28;20190;-85
2023/07/19 00:11:34;;;;;;;6.63;3.78;;;;;;;-145.69;64.34;51927.53;5094582;28;20225;-86
2023/07/19 00:14:05;;;;;;;11.23;4.20;;;;;;;-145.69;64.02;51945.34;5094444;28;20240;-86
2023/07/19 00:16:34;;;;;;;8.07;4.18;;;;;;;-145.69;64.09;51929.50;5096452;28;20205;-85
2023/07/19 00:19:01;;;;;;;7.38;3.65;;;;;;;-145.69;63.72;51947.34;5094625;28;20201;-85
2023/07/19 00:21:28;;;;;;;8.75;4.25;;;;;;;-145.69;63.84;51917.63;5094483;28;20202;-85
2023/07/19 00:23:56;;;;;;;8.15;3.78;;;;;;;-145.69;63.11;51937.44;5094488;28;20205;-85
2023/07/19 00:26:22;;;;;;;14.93;3.85;;;;;;;-145.69;63.22;51915.66;5094181;28;20213;-85
2023/07/19 00:28:49;;;;;;;9.48;3.65;;;;;;;-145.69;63.49;51933.47;5094201;28;20205;-85
2023/07/19 00:31:15;;;;;;;9.15;3.88;;;;;;;-145.69;63.29;51925.56;5093623;28;20205;-86
2023/07/19 00:33:42;;;;;;;9.75;3.53;;;;;;;-145.69;63.76;51921.59;5093767;28;20202;-85
2023/07/19 00:36:09;;;;;;;8.90;4.28;;;;;;;-145.69;63.42;51923.56;5094264;28;20672;-85
2023/07/19 00:38:36;;;;;;;7.40;4.00;;;;;;;-145.69;63.65;51935.47;5092921;28;20190;-86
2023/07/19 00:41:03;;;;;;;8.48;3.90;;;;;;;-145.69;64.16;51909.72;5094023;28;20206;-85
2023/07/19 00:43:33;;;;;;;8.27;4.05;;;;;;;-145.69;64.73;51935.47;5093755;28;20651;-86
2023/07/19 00:46:02;;;;;;;6.60;3.67;;;;;;;-145.69;63.94;51939.41;5094210;28;20206;-85
2023/07/19 00:48:28;;;;;;;7.05;3.88;;;;;;;-145.69;64.23;51953.28;5093818;28;20202;-85
2023/07/19 00:50:55;;;;;;;10.50;3.90;;;;;;;-145.69;63.99;51969.13;5096369;28;20202;-85
2023/07/19 00:53:25;;;;;;;7.97;4.00;;;;;;;-145.69;64.17;51933.47;5097790;28;20255;-86
2023/07/19 00:55:52;;;;;;;8.00;3.70;;;;;;;-145.69;64.44;51969.13;5098202;28;20236;-86
2023/07/19 00:58:22;;;;;;;6.30;3.67;;;;;;;-145.69;64.31;51969.13;5099395;28;20194;-86
2023/07/19 01:00:49;;;;;;;7.80;3.97;;;;;;;-145.69;63.96;51945.34;5098484;28;20194;-85
2023/07/19 01:03:15;;;;;;;9.32;4.13;;;;;;;-145.69;64.19;51951.28;5097357;28;20206;-86
2023/07/19 01:05:42;;;;;;;8.63;3.53;;;;;;;-145.69;63.49;51937.44;5097518;28;20198;-85
2023/07/19 01:08:08;;;;;;;11.98;3.80;;;;;;;-145.69;63.31;51959.22;5096571;28;20198;-85
2023/07/19 01:10:35;;;;;;;8.32;3.88;;;;;;;-145.69;62.90;51963.19;5097287;28;20225;-85
2023/07/19 01:13:06;;;;;;;7.03;3.72;;;;;;;-145.69;62.45;51963.19;5095823;28;20247;-86
2023/07/19 01:15:34;;;;;;;10.25;3.60;;;;;;;-145.69;62.80;51923.56;5097328;28;20224;-86
2023/07/19 01:18:00;;;;;;;8.18;3.30;;;;;;;-145.69;62.71;51961.19;5097267;28;20202;-86
2023/07/19 01:20:27;;;;;;;6.90;3.65;;;;;;;-145.69;62.94;51941.41;5096950;28;20224;-85
2023/07/19 01:22:55;;;;;;;10.65;3.47;;;;;;;-145.69;62.64;51939.41;5097727;28;20198;-86
2023/07/19 01:25:21;;;;;;;8.30;3.33;;;;;;;-145.69;62.42;51945.34;5097155;28;20202;-85
2023/07/19 01:27:48;;;;;;;10.02;3.55;;;;;;;-145.69;61.92;51947.34;5097259;28;20206;-86
2023/07/19 01:30:14;;;;;;;6.78;3.42;;;;;;;-145.69;62.14;51955.25;5097558;28;20205;-86
2023/07/19 01:32:41;;;;;;;6.93;3.40;;;;;;;-145.69;61.97;51963.19;5096457;28;20198;-86
2023/07/19 01:35:08;;;;;;;6.35;3.25;;;;;;;-145.69;61.62;51969.13;5098111;28;20225;-86
2023/07/19 01:37:35;;;;;;;8.43;4.30;;;;;;;-145.69;61.10;51971.09;5098524;28;20202;-84
2023/07/19 01:40:05;;;;;;;7.50;3.65;;;;;;;-145.69;61.43;51919.63;5097690;28;20300;-86
2023/07/19 01:42:31;;;;;;;7.38;3.30;;;;;;;-145.69;62.43;51953.28;5097301;28;20237;-84
2023/07/19 01:44:59;;;;;;;6.78;3.33;;;;;;;-145.69;62.20;51943.38;5101937;28;20201;-85
2023/07/19 01:47:25;;;;;;;9.15;3.67;;;;;;;-145.69;62.06;51937.44;5097927;28;20259;-86
2023/07/19 01:49:52;;;;;;;6.60;3.35;;;;;;;-145.69;61.94;51955.25;5096092;28;20209;-86
2023/07/19 01:52:19;;;;;;;7.32;3.15;;;;;;;-145.69;61.86;51941.41;5097713;28;20233;-85
2023/07/19 01:54:46;;;;;;;5.65;3.63;;;;;;;-145.69;62.01;51925.56;5097298;28;20656;-85
2023/07/19 01:57:14;;;;;;;6.68;3.10;;;;;;;-145.69;61.51;51921.59;5096455;28;20649;-86
2023/07/19 01:59:40;;;;;;;9.00;3.80;;;;;;;-145.69;61.71;51957.25;5096514;28;20202;-85
2023/07/19 02:02:06;;;;;;;9.93;3.75;;;;;;;-145.69;61.31;51965.16;5097136;28;20281;-85
2023/07/19 02:04:33;;;;;;;6.47;3.25;;;;;;;-145.69;61.42;51941.41;5097609;28;20212;-85
2023/07/19 02:07:00;;;;;;;7.35;3.47;;;;;;;-145.69;61.39;51941.41;5096579;28;20202;-86
2023/07/19 02:09:26;;;;;;;10.93;4.13;;;;;;;-145.69;61.17;51905.75;5097329;28;20198;-85
2023/07/19 02:11:53;;;;;;;8.65;4.18;;;;;;;-145.69;61.02;51911.69;5097443;28;20211;-86
2023/07/19 02:14:21;;;;;;;8.25;3.83;;;;;;;-145.69;60.34;51921.59;5096118;28;20226;-85
2023/07/19 02:16:47;;;;;;;8.55;3.72;;;;;;;-145.69;60.49;51923.56;5099160;28;20229;-86
2023/07/19 02:19:14;;;;;;;5.95;3.38;;;;;;;-145.69;60.68;51921.59;5097136;28;20202;-86
2023/07/19 02:21:41;;;;;;;5.45;3.25;;;;;;;-145.69;61.80;51945.34;5097834;28;20194;-86
2023/07/19 02:24:07;;;;;;;10.50;3.75;;;;;;;-145.69;62.15;51935.47;5101239;28;20198;-86
2023/07/19 02:26:34;;;;;;;10.27;4.13;;;;;;;-145.69;61.99;51965.16;5096720;28;20206;-86
2023/07/19 02:29:02;;;;;;;9.48;3.28;;;;;;;-145.69;61.74;51937.44;5095942;28;20215;-86
2023/07/19 02:31:30;;;;;;;7.82;3.25;;;;;;;-145.69;61.87;51961.19;5096555;28;20202;-85
2023/07/19 02:33:56;;;;;;;9.93;3.38;;;;;;;-145.69;61.95;51965.16;5096321;28;20245;-85
2023/07/19 02:36:28;;;;;;;9.07;3.63;;;;;;;-145.69;62.54;51961.19;5097058;28;20226;-85
2023/07/19 02:38:55;;;;;;;9.57;3.58;;;;;;;-145.69;62.61;51953.28;5081638;28;20214;-85
2023/07/19 02:41:22;;;;;;;7.88;3.80;;;;;;;-145.69;63.69;51949.31;5079154;28;20434;-85
2023/07/19 02:43:51;;;;;;;6.28;3.28;;;;;;;-145.69;63.64;51965.16;5074174;28;20305;-85
2023/07/19 02:46:18;;;;;;;9.15;3.83;;;;;;;-145.69;63.64;51955.25;5075921;28;20236;-86
2023/07/19 02:48:46;;;;;;;7.10;3.63;;;;;;;-145.69;63.67;51945.34;5076926;28;20202;-85
2023/07/19 02:51:13;;;;;;;9.95;4.20;;;;;;;-145.69;64.00;51957.25;5077439;28;20206;-86
2023/07/19 02:53:45;;;;;;;8.15;3.88;;;;;;;-145.69;64.00;51961.19;5075221;28;20202;-85
2023/07/19 02:56:11;;;;;;;7.75;3.05;;;;;;;-145.69;64.10;51939.41;5074942;28;20233;-86
2023/07/19 02:58:41;;;;;;;9.90;3.78;;;;;;;-145.69;64.34;51965.16;5075763;28;20210;-85
2023/07/19 03:01:07;;;;;;;9.30;4.30;;;;;;;-145.69;64.59;51975.06;5074744;28;20208;-85
2023/07/19 03:03:34;;;;;;;8.30;3.55;;;;;;;-145.69;64.99;51957.25;5092690;28;20237;-84
2023/07/19 03:06:02;;;;;;;10.23;3.58;;;;;;;-145.69;65.56;51951.28;5096086;28;20209;-85
2023/07/19 03:08:31;;;;;;;6.60;3.58;;;;;;;-145.69;64.98;51992.88;5096310;28;20201;-86
2023/07/19 03:11:01;;;;;;;7.22;3.80;;;;;;;-145.69;65.27;51905.75;5095822;28;20193;-86
2023/07/19 03:13:29;;;;;;;9.63;4.13;;;;;;;-145.69;65.38;51949.31;5074316;28;20229;-86
2023/07/19 03:15:56;;;;;;;9.68;4.05;;;;;;;-145.69;64.96;51937.44;5079721;28;20214;-85
2023/07/19 03:18:23;;;;;;;9.48;4.10;;;;;;;-145.69;64.89;51909.72;5096951;28;20205;-86
2023/07/19 03:20:57;;;;;;;9.60;4.32;;;;;;;-145.69;64.53;51941.41;5094873;28;20607;-86
2023/07/19 03:23:25;;;;;;;9.85;4.05;;;;;;;-145.69;65.07;51917.63;5095085;28;20268;-85
2023/07/19 03:25:59;;;;;;;8.90;4.13;;;;;;;-145.69;65.02;51941.41;5094822;28;20209;-85
2023/07/19 03:28:32;;;;;;;8.40;4.47;;;;;;;-145.69;65.33;51921.59;5094573;28;20209;-86
2023/07/19 03:31:01;;;;;;;7.28;3.83;;;;;;;-145.69;65.25;51941.41;5095128;28;20226;-85
2023/07/19 03:33:31;;;;;;;7.65;3.35;;;;;;;-145.69;65.66;51971.09;5093978;28;20201;-85
2023/07/19 03:35:57;;;;;;;12.90;4.68;;;;;;;-145.69;66.98;51953.28;5094222;28;20214;-86
2023/07/19 03:38:27;;;;;;;7.05;4.00;;;;;;;-145.69;66.27;51947.34;5095744;28;20202;-85
2023/07/19 03:41:04;;;;;;;6.75;3.72;;;;;;;-145.69;66.56;51937.44;5094291;28;20205;-86
2023/07/19 03:43:37;;;;;;;9.38;4.05;;;;;;;-145.69;66.21;51937.44;5094182;28;20205;-85
2023/07/19 03:46:10;;;;;;;7.57;3.83;;;;;;;-145.69;66.29;51951.28;5094782;28;20209;-86
2023/07/19 03:48:39;;;;;;;7.53;3.97;;;;;;;-145.69;66.75;51981.00;5095819;28;20206;-86
2023/07/19 03:51:07;;;;;;;6.30;3.70;;;;;;;-145.69;66.88;51961.19;5093905;28;20263;-85
2023/07/19 03:53:37;;;;;;;7.97;4.03;;;;;;;-145.69;66.48;51917.63;5097206;28;20209;-85
2023/07/19 03:56:04;;;;;;;11.25;4.18;;;;;;;-145.69;66.83;51921.59;5095039;28;20225;-85
2023/07/19 03:58:39;;;;;;;7.10;4.05;;;;;;;-145.69;66.51;51965.16;5090328;28;20618;-86
2023/07/19 04:01:05;;;;;;;9.43;4.32;;;;;;;-145.69;67.33;51957.25;5076076;28;20202;-85
2023/07/19 04:03:33;;;;;;;7.45;4.10;;;;;;;-145.69;67.43;51967.13;5088784;28;20202;-86
2023/07/19 04:06:15;;;;;;;14.70;4.90;;;;;;;-145.69;68.00;51941.41;5093644;28;20206;-86
2023/07/19 04:08:43;;;;;;;9.25;4.47;;;;;;;-145.69;67.35;51959.22;5091070;28;20201;-86
2023/07/19 04:11:18;;;;;;;11.00;4.47;;;;;;;-145.69;67.51;51957.25;5093804;28;20202;-86
2023/07/19 04:13:44;;;;;;;9.85;4.43;;;;;;;-145.69;67.41;51973.06;5094180;28;20246;-84
2023/07/19 04:16:17;;;;;;;7.47;4.22;;;;;;;-145.69;67.72;51969.13;5094060;28;20221;-86
2023/07/19 04:18:46;;;;;;;8.18;4.53;;;;;;;-145.69;66.61;51965.16;5093765;28;20213;-85
2023/07/19 04:21:13;;;;;;;9.00;4.35;;;;;;;-145.69;66.85;51949.31;5093603;28;20205;-86
2023/07/19 04:23:39;;;;;;;9.38;4.65;;;;;;;-145.69;66.48;51933.47;5093528;28;20313;-85
2023/07/19 04:26:07;;;;;;;7.72;4.22;;;;;;;-145.69;66.06;51909.72;5097346;28;20200;-86
2023/07/19 04:28:34;;;;;;;7.65;4.38;;;;;;;-145.69;65.78;51953.28;5098254;28;20204;-86
2023/07/19 04:31:01;;;;;;;7.88;4.25;;;;;;;-145.69;64.83;51951.28;5098199;28;20694;-86
2023/07/19 04:33:27;;;;;;;10.13;4.45;;;;;;;-145.69;64.41;51917.63;5098414;28;20204;-86
2023/07/19 04:36:02;;;;;;;6.88;4.10;;;;;;;-145.69;63.41;51935.47;5097409;28;20772;-86
2023/07/19 04:38:31;;;;;;;6.45;3.67;;;;;;;-145.69;63.80;51931.50;5097716;28;20615;-86
2023/07/19 04:41:02;;;;;;;10.27;3.92;;;;;;;-145.69;62.08;51901.78;5098294;28;20202;-86
2023/07/19 04:43:33;;;;;;;6.43;4.07;;;;;;;-145.69;62.76;51923.56;5098991;28;20202;-86
2023/07/19 04:46:00;;;;;;;7.95;3.90;;;;;;;-145.69;62.46;51935.47;5097946;28;20206;-85
2023/07/19 04:48:27;;;;;;;8.70;4.18;;;;;;;-145.69;61.42;51949.31;5099109;28;20202;-86
2023/07/19 04:50:54;;;;;;;7.95;3.47;;;;;;;-145.69;61.11;51955.25;5097230;28;20285;-85
2023/07/19 04:53:21;;;;;;;7.15;4.00;;;;;;;-145.69;60.53;51917.63;5096981;28;20263;-85
2023/07/19 04:55:49;;;;;;;8.68;4.35;;;;;;;-145.69;60.36;51931.50;5096905;28;20297;-84
2023/07/19 04:58:16;;;;;;;8.88;4.13;;;;;;;-145.69;60.24;51925.56;5097096;28;20217;-85
2023/07/19 05:00:46;;;;;;;10.48;4.55;;;;;;;-145.69;59.54;51921.59;5096926;28;20210;-85
2023/07/19 05:03:22;;;;;;;8.52;4.30;;;;;;;-145.69;58.97;51905.75;5096311;28;20194;-86
2023/07/19 05:05:50;;;;;;;7.10;3.92;;;;;;;-145.69;59.18;51933.47;5097010;28;20205;-84
2023/07/19 05:08:19;;;;;;;7.72;4.18;;;;;;;-145.69;59.06;51911.69;5096742;28;20230;-85
2023/07/19 05:10:46;;;;;;;15.90;4.35;;;;;;;-145.69;58.78;51913.69;5096738;28;20194;-86
2023/07/19 05:13:13;;;;;;;12.05;4.32;;;;;;;-145.69;58.48;51925.56;5096682;28;20316;-85
2023/07/19 05:15:44;;;;;;;13.57;3.88;;;;;;;-145.69;58.73;51911.69;5096649;28;20213;-85
2023/07/19 05:18:13;;;;;;;9.35;4.30;;;;;;;-145.69;57.81;51899.81;5096721;28;20206;-85
2023/07/19 05:20:44;;;;;;;8.68;3.90;;;;;;;-145.69;58.03;51885.94;5096169;28;20198;-85
2023/07/19 05:23:13;;;;;;;6.22;3.35;;;;;;;-145.69;57.58;51901.78;5092919;28;20213;-85
2023/07/19 05:25:39;;;;;;;8.65;3.70;;;;;;;-145.69;57.89;51925.56;5096302;28;20205;-85
2023/07/19 05:28:08;;;;;;;8.77;4.50;;;;;;;-145.69;58.12;51882.00;5098359;28;20228;-85
2023/07/19 05:30:35;;;;;;;8.77;4.25;;;;;;;-145.69;56.89;51915.66;5096598;28;20568;-85
2023/07/19 05:33:03;;;;;;;8.82;4.13;;;;;;;-145.69;56.60;51872.09;5096116;28;20251;-85
2023/07/19 05:35:34;;;;;;;9.07;4.57;;;;;;;-145.69;56.37;51880.00;5095653;28;20875;-84
2023/07/19 05:38:00;;;;;;;8.90;3.67;;;;;;;-145.69;55.20;51893.88;5095424;28;20226;-84
2023/07/19 05:40:28;;;;;;;6.55;3.80;;;;;;;-145.69;55.12;51897.84;5095858;28;20206;-85
2023/07/19 05:42:55;;;;;;;12.77;4.00;;;;;;;-145.69;53.72;51878.03;5095098;28;20240;-84
2023/07/19 05:45:21;;;;;;;9.75;3.97;;;;;;;-145.69;53.57;51901.78;5095869;28;20705;-85
2023/07/19 05:47:48;;;;;;;8.68;3.67;;;;;;;-145.69;52.76;51870.13;5095774;28;20679;-84
2023/07/19 05:50:19;;;;;;;9.65;4.20;;;;;;;-145.69;52.74;51885.94;5089538;28;20284;-85
2023/07/19 05:52:46;;;;;;;7.10;3.60;;;;;;;-145.69;52.71;51882.00;5075506;28;20206;-85
2023/07/19 05:55:22;;;;;;;7.95;3.50;;;;;;;-145.69;50.31;51897.84;5075550;28;20553;-85
2023/07/19 05:57:48;;;;;;;6.55;3.55;;;;;;;-145.69;50.91;51876.06;5075419;28;20226;-85
2023/07/19 06:00:22;;;;;;;7.03;3.83;;;;;;;-145.69;50.14;51885.94;5075152;28;20629;-86
2023/07/19 06:02:51;;;;;;;7.03;3.38;;;;;;;-145.69;50.82;51870.13;5078100;28;20202;-85
2023/07/19 06:05:20;;;;;;;7.05;3.75;;;;;;;-145.69;50.52;51862.19;5095105;28;20190;-85
2023/07/19 06:07:47;;;;;;;7.68;4.15;;;;;;;-145.69;49.58;51860.22;5095839;28;20209;-84
2023/07/19 06:10:18;;;;;;;5.88;3.50;;;;;;;-145.69;49.77;51882.00;5095147;28;20206;-86
2023/07/19 06:12:49;;;;;;;5.88;3.30;;;;;;;-145.69;50.62;51872.09;5095431;28;20209;-84
2023/07/19 06:15:18;;;;;;;6.20;3.50;;;;;;;-145.69;47.88;51872.09;5097193;28;20206;-84
2023/07/19 06:17:46;;;;;;;12.85;4.10;;;;;;;-145.69;49.61;51901.78;5095548;28;20226;-83
2023/07/19 06:20:13;;;;;;;7.78;3.95;;;;;;;-145.69;48.46;51850.31;5095558;28;20251;-85
2023/07/19 06:22:41;;;;;;;7.65;3.70;;;;;;;-145.69;48.37;51866.16;5095719;28;20212;-85
2023/07/19 06:25:09;;;;;;;6.22;3.42;;;;;;;-145.69;47.31;51860.22;5096529;28;20232;-85
2023/07/19 06:27:37;;;;;;;6.82;3.22;;;;;;;-145.69;48.32;51870.13;5095565;28;20202;-85
2023/07/19 06:30:05;;;;;;;11.63;3.30;;;;;;;-145.69;47.68;51848.34;5096997;28;20264;-84
2023/07/19 06:32:32;;;;;;;10.02;3.53;;;;;;;-145.69;45.93;51862.19;5096597;28;20212;-84
2023/07/19 06:34:59;;;;;;;6.80;3.05;;;;;;;-145.69;45.77;51844.38;5075478;28;20210;-86
2023/07/19 06:37:28;;;;;;;8.07;3.20;;;;;;;-145.69;45.64;51838.44;5077081;28;20231;-85
2023/07/19 06:39:56;;;;;;;6.55;3.25;;;;;;;-145.69;44.51;51842.38;5094678;28;20730;-84
2023/07/19 06:42:29;;;;;;;6.47;2.83;;;;;;;-145.69;44.63;51844.38;5095117;28;20194;-84
2023/07/19 06:44:56;;;;;;;7.25;3.22;;;;;;;-145.69;44.71;51838.44;5093710;28;20660;-86
2023/07/19 06:47:29;;;;;;;7.85;3.10;;;;;;;-145.69;43.53;51862.19;5094646;28;20661;-84
2023/07/19 06:49:56;;;;;;;6.95;2.95;;;;;;;-145.69;43.17;51860.22;5095366;28;20886;-85
2023/07/19 06:52:23;;;;;;;6.60;2.70;;;;;;;-145.69;43.38;51848.34;5095784;28;20194;-84
2023/07/19 06:54:51;;;;;;;6.05;2.28;;;;;;;-145.69;43.12;51824.56;5095672;28;20229;-85
2023/07/19 06:57:20;;;;;;;7.75;3.30;;;;;;;-145.69;41.72;51814.66;5094813;28;20448;-86
2023/07/19 06:59:49;;;;;;;6.43;3.03;;;;;;;-145.69;41.62;51828.53;5094682;28;20565;-84
2023/07/19 07:02:21;;;;;;;7.03;2.85;;;;;;;-145.69;42.76;51838.44;5095052;28;20209;-84
2023/07/19 07:04:51;;;;;;;10.48;2.90;;;;;;;-145.69;41.97;51838.44;5093664;28;20194;-84
2023/07/19 07:07:19;;;;;;;7.30;2.63;;;;;;;-145.69;41.91;51816.66;5094622;28;20229;-83
2023/07/19 07:09:54;;;;;;;5.28;2.47;;;;;;;-145.69;41.32;51836.44;5094914;28;20205;-81
2023/07/19 07:12:23;;;;;;;6.55;2.80;;;;;;;-145.69;40.84;51818.63;5093576;28;20645;-83
2023/07/19 07:14:52;;;;;;;4.95;2.28;;;;;;;-145.69;40.16;51798.81;5085700;28;20246;-84
2023/07/19 07:17:21;;;;;;;6.18;2.35;;;;;;;-145.69;38.37;51814.66;5080504;28;20588;-83
2023/07/19 07:19:48;;;;;;;6.60;2.75;;;;;;;-145.69;38.63;51802.78;5086388;28;20366;-85
2023/07/19 07:22:15;;;;;;;5.93;2.58;;;;;;;-145.69;38.70;51818.63;5074089;28;20205;-83
2023/07/19 07:24:43;;;;;;;6.50;2.55;;;;;;;-145.69;38.22;51808.72;5073329;28;20658;-84
2023/07/19 07:27:15;;;;;;;7.78;2.80;;;;;;;-145.69;38.80;51779.03;5093405;28;20201;-84
2023/07/19 07:29:46;;;;;;;4.68;2.15;;;;;;;-145.69;38.42;51794.88;5094023;28;20202;-84
2023/07/19 07:32:12;;;;;;;8.20;2.40;;;;;;;-145.69;38.23;51783.00;5094134;28;20204;-84
2023/07/19 07:34:41;;;;;;;5.30;2.55;;;;;;;-145.69;38.83;51802.78;5093608;28;20280;-85
2023/07/19 07:37:08;;;;;;;4.75;2.47;;;;;;;-145.69;38.84;51816.66;5093579;28;20226;-84
2023/07/19 07:39:37;;;;;;;6.22;2.22;;;;;;;-145.69;39.13;51826.56;5094536;28;20198;-84
2023/07/19 07:42:05;;;;;;;7.63;2.05;;;;;;;-145.69;38.86;51781.00;5094831;28;20197;-83
2023/07/19 07:44:32;;;;;;;7.20;2.30;;;;;;;-145.69;38.52;51790.91;5094727;28;20679;-84
2023/07/19 07:47:00;;;;;;;6.10;2.25;;;;;;;-145.69;38.52;51786.94;5092872;28;20561;-84
2023/07/19 07:49:30;;;;;;;4.88;2.20;;;;;;;-145.69;37.95;51800.81;5094279;28;20722;-84
2023/07/19 07:51:56;;;;;;;7.00;2.28;;;;;;;-145.69;38.10;51826.56;5095250;28;20229;-85
2023/07/19 07:54:23;;;;;;;3.80;2.00;;;;;;;-145.69;38.29;51796.84;5093853;28;20202;-84
2023/07/19 07:56:49;;;;;;;7.95;2.40;;;;;;;-145.69;38.64;51783.00;5093519;28;20200;-85
2023/07/19 07:59:16;;;;;;;7.32;2.17;;;;;;;-145.69;38.73;51777.03;5093613;28;20198;-84
2023/07/19 08:02:02;;;;;;;7.00;2.47;;;;;;;-145.69;38.09;51779.03;5093638;28;20198;-84
2023/07/19 08:04:28;;;;;;;6.13;2.45;;;;;;;-145.69;38.91;51777.03;5093492;28;20565;-84
2023/07/19 08:06:57;;;;;;;6.18;2.20;;;;;;;-145.69;38.27;51802.78;5093628;28;20205;-84
2023/07/19 08:09:24;;;;;;;6.38;2.53;;;;;;;-145.69;37.41;51794.88;5093553;28;20199;-85
2023/07/19 08:11:50;;;;;;;5.97;2.50;;;;;;;-145.69;37.19;51765.16;5093430;28;20202;-85
2023/07/19 08:14:19;;;;;;;7.53;2.33;;;;;;;-145.69;36.71;51812.69;5093148;28;20249;-84
2023/07/19 08:16:46;;;;;;;5.15;2.40;;;;;;;-145.69;36.83;51763.19;5093212;28;20202;-84
2023/07/19 08:19:14;;;;;;;5.38;2.72;;;;;;;-145.69;36.65;51755.25;5092794;28;20198;-84
2023/07/19 08:21:40;;;;;;;5.00;2.30;;;;;;;-145.69;36.92;51763.19;5093198;28;20298;-84
2023/07/19 08:24:11;;;;;;;4.18;2.17;;;;;;;-145.69;36.16;51771.09;5093102;28;20206;-84
2023/07/19 08:26:37;;;;;;;5.90;2.33;;;;;;;-145.69;36.21;51759.22;5093815;28;20668;-84
2023/07/19 08:29:04;;;;;;;5.55;2.10;;;;;;;-145.69;36.29;51757.25;5093046;28;20669;-85
2023/07/19 08:31:39;;;;;;;4.30;2.10;;;;;;;-145.69;35.86;51777.03;5094327;28;20259;-83
2023/07/19 08:34:07;;;;;;;4.95;2.10;;;;;;;-145.69;37.23;51743.38;5096146;28;20209;-84
2023/07/19 08:36:35;;;;;;;7.30;2.58;;;;;;;-145.69;36.79;51779.03;5094074;28;20202;-84
2023/07/19 08:39:07;;;;;;;3.35;2.15;;;;;;;-145.69;36.38;51792.88;5093142;28;20240;-85
2023/07/19 08:41:36;;;;;;;5.35;2.90;;;;;;;-145.69;36.26;51759.22;5093007;28;20201;-84
2023/07/19 08:44:04;;;;;;;5.13;2.30;;;;;;;-145.69;36.33;51771.09;5092612;28;20204;-85
2023/07/19 08:46:34;;;;;;;5.82;2.75;;;;;;;-145.69;35.98;51783.00;5093122;28;20201;-85
2023/07/19 08:49:02;;;;;;;5.93;2.28;;;;;;;-145.69;35.30;51757.25;5092658;28;20229;-85
2023/07/19 08:51:29;;;;;;;6.45;2.25;;;;;;;-145.69;35.62;51771.09;5092982;28;20198;-86
2023/07/19 08:53:59;;;;;;;6.30;2.40;;;;;;;-145.69;35.57;51763.19;5093048;28;20203;-86
2023/07/19 08:56:30;;;;;;;4.60;2.20;;;;;;;-145.69;34.54;51755.25;5092886;28;20206;-85
2023/07/19 08:58:57;;;;;;;5.28;2.10;;;;;;;-145.69;34.71;51739.44;5092799;28;20222;-85
2023/07/19 09:01:23;;;;;;;8.32;2.53;;;;;;;-145.69;35.44;51765.16;5092073;28;20443;-85
2023/07/19 09:03:50;;;;;;;4.95;2.60;;;;;;;-145.69;34.49;51759.22;5092919;28;20212;-86
2023/07/19 09:06:23;;;;;;;5.43;2.60;;;;;;;-145.69;34.53;51725.56;5093701;28;20641;-86
2023/07/19 09:08:52;;;;;;;4.45;2.63;;;;;;;-145.69;34.73;51763.19;5093078;28;20202;-84
2023/07/19 09:11:23;;;;;;;5.50;2.53;;;;;;;-145.69;34.08;51731.50;5093943;28;20210;-85
2023/07/19 09:13:56;;;;;;;8.15;2.65;;;;;;;-145.69;34.60;51703.78;5096614;28;20218;-86
2023/07/19 09:16:30;;;;;;;4.03;2.53;;;;;;;-145.69;34.57;51725.56;5097241;28;20198;-86
2023/07/19 09:18:58;;;;;;;7.43;2.72;;;;;;;-145.69;34.23;51711.72;5095716;28;20321;-86
2023/07/19 09:21:37;;;;;;;6.10;2.00;;;;;;;-145.69;33.46;51682.00;5096383;28;20204;-85
2023/07/19 09:24:04;;;;;;;5.57;2.88;;;;;;;-145.69;32.64;51687.94;5096216;28;20201;-87
2023/07/19 09:26:48;;;;;;;4.85;2.30;;;;;;;-145.69;32.79;51685.97;5096397;28;20194;-86
2023/07/19 09:29:14;;;;;;;4.05;2.58;;;;;;;-145.69;32.98;51658.25;5096406;28;20206;-85
2023/07/19 09:31:53;;;;;;;6.43;2.78;;;;;;;-145.69;32.52;51680.03;5096258;28;20202;-85
2023/07/19 09:34:20;;;;;;;6.78;2.80;;;;;;;-145.69;33.13;51682.00;5096293;28;20279;-85
2023/07/19 09:36:47;;;;;;;7.95;2.50;;;;;;;-145.69;32.60;51662.22;5096052;28;20202;-84
2023/07/19 09:39:13;;;;;;;6.63;2.50;;;;;;;-145.69;32.35;51683.97;5080449;28;20226;-86
2023/07/19 09:41:40;;;;;;;4.63;2.63;;;;;;;-145.69;32.17;51705.75;5088213;28;20221;-86
2023/07/19 09:44:10;;;;;;;10.10;2.70;;;;;;;-145.69;34.03;51703.78;5094887;28;20217;-86
2023/07/19 09:46:37;;;;;;;8.68;2.70;;;;;;;-145.69;34.11;51683.97;5096191;28;20278;-84
2023/07/19 09:49:04;;;;;;;6.80;2.75;;;;;;;-145.69;33.10;51711.72;5094703;28;20203;-85
2023/07/19 09:51:34;;;;;;;7.03;2.95;;;;;;;-145.69;33.43;51711.72;5095731;28;20675;-86
2023/07/19 09:54:05;;;;;;;6.18;3.05;;;;;;;-145.69;33.50;51695.88;5095438;28;20259;-87
2023/07/19 09:56:31;;;;;;;7.10;2.50;;;;;;;-145.69;32.51;51689.94;5095790;28;20204;-86
2023/07/19 09:58:59;;;;;;;10.88;2.67;;;;;;;-145.69;32.85;51670.13;5095757;28;20222;-85
2023/07/19 10:01:28;;;;;;;6.15;2.58;;;;;;;-145.69;32.35;51680.03;5096196;28;20210;-86
2023/07/19 10:03:55;;;;;;;6.43;2.72;;;;;;;-145.69;31.97;51680.03;5096445;28;20201;-86
2023/07/19 10:06:29;;;;;;;8.85;3.30;;;;;;;-145.69;32.33;51660.22;5096528;28;20202;-86
2023/07/19 10:09:31;;;;;;;5.68;2.55;;;;;;;-145.69;33.23;51656.25;5096276;28;20209;-86
2023/07/19 10:11:59;;;;;;;7.82;2.80;;;;;;;-145.69;31.90;51636.47;5094036;28;20198;-86
2023/07/19 10:14:27;;;;;;;5.60;3.00;;;;;;;-145.69;32.66;51682.00;5095205;28;20236;-85
2023/07/19 10:16:58;;;;;;;5.60;2.65;;;;;;;-145.69;32.17;51670.13;5095602;28;20225;-85
2023/07/19 10:19:28;;;;;;;6.50;2.72;;;;;;;-145.69;31.68;51656.25;5094340;28;20271;-85
2023/07/19 10:22:06;;;;;;;10.05;3.28;;;;;;;-145.69;32.20;51620.63;5094777;28;20675;-85
2023/07/19 10:24:34;;;;;;;5.60;2.70;;;;;;;-145.69;32.22;51662.22;5095217;28;20251;-86
2023/07/19 10:27:02;;;;;;;5.30;2.75;;;;;;;-145.69;32.66;51666.16;5096244;28;20210;-85
2023/07/19 10:29:38;;;;;;;7.07;2.83;;;;;;;-145.69;31.81;51670.13;5095587;28;20206;-85
2023/07/19 10:32:07;;;;;;;5.38;2.58;;;;;;;-145.69;32.32;51674.09;5096233;28;20688;-85
2023/07/19 10:34:34;;;;;;;7.47;2.97;;;;;;;-145.69;32.30;51640.44;5095684;28;20198;-85
2023/07/19 10:37:02;;;;;;;4.47;3.00;;;;;;;-145.69;31.99;51636.47;5096456;28;20205;-85
2023/07/19 10:39:29;;;;;;;6.63;3.35;;;;;;;-145.69;32.76;51646.38;5096345;28;20631;-86
2023/07/19 10:41:56;;;;;;;5.38;2.88;;;;;;;-145.69;31.73;51660.22;5094949;28;20213;-84
2023/07/19 10:44:22;;;;;;;9.23;4.90;;;;;;;-145.69;30.99;51656.25;5094875;28;20209;-85
2023/07/19 10:46:49;;;;;;;6.25;3.05;;;;;;;-145.69;31.54;51630.53;5094461;28;20198;-84
2023/07/19 10:49:17;;;;;;;5.22;2.80;;;;;;;-145.69;31.73;51636.47;5091149;28;20205;-86
2023/07/19 10:51:52;;;;;;;4.47;2.80;;;;;;;-145.69;32.51;51652.31;5093755;28;20191;-87
2023/07/19 10:54:19;;;;;;;6.57;2.92;;;;;;;-145.69;31.41;51640.44;5094760;28;20201;-85
2023/07/19 10:56:50;;;;;;;5.32;2.70;;;;;;;-145.69;30.80;51648.34;5095187;28;20202;-83
2023/07/19 10:59:17;;;;;;;6.10;2.78;;;;;;;-145.69;31.09;51672.09;5095398;28;20230;-84
2023/07/19 11:01:45;;;;;;;6.38;2.63;;;;;;;-145.69;31.94;51668.16;5095128;28;20523;-85
2023/07/19 11:04:11;;;;;;;5.15;2.75;;;;;;;-145.69;31.35;51668.16;5096217;28;20202;-84
2023/07/19 11:06:53;;;;;;;5.82;2.38;;;;;;;-145.69;33.36;51672.09;5095099;28;20205;-85
2023/07/19 11:09:23;;;;;;;7.00;2.67;;;;;;;-145.69;31.24;51640.44;5094743;28;20223;-84
2023/07/19 11:11:50;;;;;;;4.22;2.70;;;;;;;-145.69;31.68;51691.91;5095162;28;20206;-84
2023/07/19 11:14:36;;;;;;;5.10;2.88;;;;;;;-145.69;31.01;51658.25;5094759;28;20222;-86
2023/07/19 11:17:03;;;;;;;6.32;2.97;;;;;;;-145.69;30.71;51644.38;5097704;28;20620;-83
2023/07/19 11:19:36;;;;;;;5.13;2.72;;;;;;;-145.69;30.47;51656.25;5094973;28;20715;-85
2023/07/19 11:22:07;;;;;;;6.15;3.00;;;;;;;-145.69;30.17;51660.22;5094104;28;20300;-84
2023/07/19 11:24:38;;;;;;;7.95;3.30;;;;;;;-145.69;29.81;51650.31;5095339;28;20205;-84